Time;durP1;ratioP1;P1;durP2;ratioP2;P2;SDS_P1;SDS_P2;PMS_P1;PMS_P2;Temp;Humidity;BMP_temperature;BMP_pressure;BME280_temperature;BME280_humidity;BME280_pressure;Samples;Min_cycle;Max_cycle;Signal;HPM_P1;HPM_P2
2022/05/04 00:02:14;;;;;;;5.10;3.80;;;;;;;12.88;56.00;99853.41;1822205;79;21517;-60
2022/05/04 00:04:43;;;;;;;7.85;4.03;;;;;;;12.89;54.64;99849.59;1822315;79;21447;-61
2022/05/04 00:07:12;;;;;;;7.95;3.83;;;;;;;12.92;54.44;99850.52;1788626;79;21054;-67
2022/05/04 00:09:41;;;;;;;9.13;3.90;;;;;;;12.92;53.90;99854.64;1774312;81;21070;-60
2022/05/04 00:12:11;;;;;;;6.37;4.05;;;;;;;12.92;53.94;99857.39;1774249;81;21419;-60
2022/05/04 00:14:42;;;;;;;7.20;4.08;;;;;;;12.92;53.38;99856.55;1774272;81;21046;-59
2022/05/04 00:17:11;;;;;;;6.42;3.90;;;;;;;12.95;52.87;99855.56;1774234;81;21536;-59
2022/05/04 00:19:40;;;;;;;7.15;3.90;;;;;;;13.01;52.49;99859.34;1774374;80;21046;-59
2022/05/04 00:22:09;;;;;;;5.85;3.42;;;;;;;13.05;52.03;99861.95;1774270;81;21435;-64
2022/05/04 00:24:38;;;;;;;6.25;3.70;;;;;;;13.08;51.80;99860.12;1779725;80;21049;-60
2022/05/04 00:27:07;;;;;;;5.80;3.95;;;;;;;13.11;51.63;99861.04;1787958;80;21038;-60
2022/05/04 00:29:36;;;;;;;6.40;3.80;;;;;;;13.14;51.33;99872.13;1788014;80;21014;-59
2022/05/04 00:32:07;;;;;;;6.08;3.87;;;;;;;13.16;51.17;99868.61;1788074;80;21466;-60
2022/05/04 00:34:37;;;;;;;6.97;3.80;;;;;;;13.17;51.03;99866.20;1788068;80;21023;-59
2022/05/04 00:37:06;;;;;;;7.12;3.80;;;;;;;13.19;50.70;99873.16;1788207;79;21193;-61
2022/05/04 00:39:37;;;;;;;7.65;4.08;;;;;;;13.19;50.47;99870.94;1813015;79;21046;-59
2022/05/04 00:42:11;;;;;;;6.05;4.00;;;;;;;13.19;50.50;99869.56;1820295;79;21011;-60
2022/05/04 00:44:42;;;;;;;6.40;3.90;;;;;;;13.19;50.54;99871.78;1750925;82;21018;-58
2022/05/04 00:47:11;;;;;;;7.00;4.03;;;;;;;13.19;50.41;99875.91;1782156;80;21462;-60
2022/05/04 00:49:41;;;;;;;7.00;4.12;;;;;;;13.18;50.28;99879.72;1750906;82;21062;-60
2022/05/04 00:52:14;;;;;;;6.55;4.00;;;;;;;13.17;50.19;99879.42;1781796;80;21443;-60
2022/05/04 00:54:44;;;;;;;6.40;3.52;;;;;;;13.17;50.11;99882.16;1751142;82;20980;-60
2022/05/04 00:57:14;;;;;;;7.35;4.03;;;;;;;13.17;50.02;99887.67;1767827;80;21012;-60
2022/05/04 00:59:43;;;;;;;7.53;3.98;;;;;;;13.16;50.04;99886.48;1751193;81;21048;-64
2022/05/04 01:02:12;;;;;;;7.90;4.15;;;;;;;13.16;49.95;99885.11;1751110;82;21039;-61
2022/05/04 01:04:44;;;;;;;7.05;4.08;;;;;;;13.15;49.90;99880.68;1750823;82;21333;-61
2022/05/04 01:07:14;;;;;;;7.83;3.92;;;;;;;13.15;49.96;99884.80;1750893;81;21046;-62
2022/05/04 01:09:45;;;;;;;5.72;3.65;;;;;;;13.14;49.89;99881.22;1751186;82;20978;-60
2022/05/04 01:12:14;;;;;;;6.90;3.77;;;;;;;13.14;49.96;99892.75;1750998;82;20998;-61
2022/05/04 01:14:43;;;;;;;7.42;3.80;;;;;;;13.14;49.94;99892.75;1750804;82;21449;-60
2022/05/04 01:17:14;;;;;;;10.55;3.90;;;;;;;13.12;49.95;99893.52;1750744;81;21512;-60
2022/05/04 01:19:44;;;;;;;6.87;3.70;;;;;;;13.11;49.83;99891.30;1751128;82;21058;-60
2022/05/04 01:22:13;;;;;;;5.78;3.85;;;;;;;13.12;49.69;99897.64;1750909;82;21026;-59
2022/05/04 01:24:43;;;;;;;5.90;3.80;;;;;;;13.12;49.65;99892.98;1745233;81;21062;-59
2022/05/04 01:27:12;;;;;;;7.90;3.62;;;;;;;13.13;49.64;99891.06;1718506;83;21056;-62
2022/05/04 01:29:41;;;;;;;5.97;3.60;;;;;;;13.15;49.47;99895.81;1767451;81;21523;-61
2022/05/04 01:32:10;;;;;;;6.65;3.50;;;;;;;13.15;49.33;99894.44;1767294;81;21072;-60
2022/05/04 01:34:40;;;;;;;6.92;3.80;;;;;;;13.15;49.27;99898.56;1767624;81;21091;-60
2022/05/04 01:37:14;;;;;;;6.47;3.33;;;;;;;13.14;49.26;99894.97;1767258;81;21054;-61
2022/05/04 01:39:43;;;;;;;6.42;3.58;;;;;;;13.14;49.09;99891.38;1778011;80;21023;-61
2022/05/04 01:42:16;;;;;;;5.53;3.70;;;;;;;13.14;49.16;99899.63;1779785;80;21041;-60
2022/05/04 01:44:46;;;;;;;9.13;4.20;;;;;;;13.15;49.19;99901.31;1779736;80;21424;-61
2022/05/04 01:47:15;;;;;;;7.20;3.75;;;;;;;13.13;49.19;99911.16;1779756;80;21047;-60
2022/05/04 01:49:45;;;;;;;8.05;3.83;;;;;;;13.14;49.24;99909.25;1779812;80;21483;-59
2022/05/04 01:52:16;;;;;;;8.95;4.78;;;;;;;13.13;49.27;99909.79;1779800;80;21023;-59
2022/05/04 01:54:45;;;;;;;6.00;3.85;;;;;;;13.12;49.27;99904.52;1779681;80;21082;-61
2022/05/04 01:57:14;;;;;;;9.10;4.25;;;;;;;13.11;49.37;99908.33;1750274;80;21051;-60
2022/05/04 01:59:42;;;;;;;6.85;4.00;;;;;;;13.09;49.35;99904.97;1779819;80;21008;-60
2022/05/04 02:02:12;;;;;;;8.73;4.53;;;;;;;13.07;49.38;99910.69;1779827;80;21015;-61
2022/05/04 02:04:41;;;;;;;16.75;4.58;;;;;;;13.05;49.37;99911.98;1780045;80;21043;-59
2022/05/04 02:07:10;;;;;;;7.75;3.92;;;;;;;13.03;49.47;99917.71;1760110;80;21098;-60
2022/05/04 02:09:41;;;;;;;6.50;3.58;;;;;;;12.98;49.51;99921.11;1751788;82;21039;-60
2022/05/04 02:12:11;;;;;;;5.80;3.72;;;;;;;12.95;49.60;99929.80;1751788;81;20988;-60
2022/05/04 02:14:41;;;;;;;6.05;3.98;;;;;;;12.92;49.56;99925.29;1751892;82;21043;-60
2022/05/04 02:17:10;;;;;;;6.42;4.00;;;;;;;12.88;49.57;99933.15;1751684;82;21059;-58
2022/05/04 02:19:40;;;;;;;6.47;3.60;;;;;;;12.85;49.70;99929.47;1751789;82;21478;-59
2022/05/04 02:22:09;;;;;;;7.12;4.10;;;;;;;12.82;49.61;99927.70;1751721;82;21052;-59
2022/05/04 02:24:38;;;;;;;10.90;4.30;;;;;;;12.79;49.67;99938.61;1754927;80;21320;-59
2022/05/04 02:27:07;;;;;;;7.90;4.17;;;;;;;12.75;49.71;99938.75;1779709;80;21019;-60
2022/05/04 02:29:37;;;;;;;5.10;3.60;;;;;;;12.70;49.71;99934.45;1779777;80;21008;-60
2022/05/04 02:32:07;;;;;;;9.60;3.85;;;;;;;12.66;49.87;99942.84;1742930;82;21053;-60
2022/05/04 02:37:54;;;;;;;8.00;3.60;;;;;;;12.62;49.98;99945.72;1742931;82;21057;-60
2022/05/04 02:39:54;;;;;;;;;;;;;;;12.57;50.12;99949.67;1747244;82;21029;-59
2022/05/04 02:42:23;;;;;;;7.87;3.90;;;;;;;12.54;50.20;99952.33;1744694;81;20201;-62
2022/05/04 02:44:53;;;;;;;6.60;4.00;;;;;;;12.49;50.19;99956.27;1784685;80;21039;-59
2022/05/04 02:47:21;;;;;;;7.67;3.70;;;;;;;12.46;50.18;99957.24;1750905;81;21067;-60
2022/05/04 02:49:50;;;;;;;7.40;3.75;;;;;;;12.44;50.24;99964.34;1808764;79;21034;-59
2022/05/04 02:52:20;;;;;;;7.55;3.72;;;;;;;12.43;50.23;99963.19;1779856;80;21014;-60
2022/05/04 02:54:50;;;;;;;6.87;3.83;;;;;;;12.38;50.26;99966.06;1780187;79;21070;-59
2022/05/04 02:57:19;;;;;;;7.20;3.72;;;;;;;12.37;50.36;99973.15;1780915;80;21043;-60
2022/05/04 02:59:48;;;;;;;4.65;3.37;;;;;;;12.32;50.28;99969.66;1782552;79;21036;-64
2022/05/04 03:02:27;;;;;;;8.03;3.95;;;;;;;12.32;50.35;99970.19;1782690;80;21016;-59
2022/05/04 03:05:00;;;;;;;8.20;3.52;;;;;;;12.32;50.38;99973.78;1782860;79;21034;-60
2022/05/04 03:07:30;;;;;;;9.83;3.72;;;;;;;12.32;50.24;99976.52;1780070;80;21524;-62
2022/05/04 03:09:59;;;;;;;6.78;3.50;;;;;;;12.31;50.33;99979.48;1779923;80;21026;-60
2022/05/04 03:12:28;;;;;;;5.97;3.60;;;;;;;12.27;50.39;99979.09;1780019;80;21022;-61
2022/05/04 03:14:58;;;;;;;7.03;3.65;;;;;;;12.26;50.42;99985.64;1779973;80;21018;-61
2022/05/04 03:17:27;;;;;;;8.88;3.58;;;;;;;12.25;50.42;99990.82;1780072;80;21049;-58
2022/05/04 03:19:58;;;;;;;7.97;3.75;;;;;;;12.25;50.47;99997.69;1779814;80;21061;-59
2022/05/04 03:22:27;;;;;;;6.83;3.70;;;;;;;12.25;50.44;99993.57;1780031;80;21008;-60
2022/05/04 03:24:56;;;;;;;10.95;4.10;;;;;;;12.25;50.52;99999.06;1779263;80;21525;-60
2022/05/04 03:27:25;;;;;;;11.10;3.60;;;;;;;12.23;50.58;100005.31;1774293;81;21047;-59
2022/05/04 03:29:53;;;;;;;8.88;3.50;;;;;;;12.24;50.46;100008.89;1774376;81;21033;-60
2022/05/04 03:32:23;;;;;;;7.22;3.72;;;;;;;12.25;50.62;100015.55;1774262;81;21014;-59
2022/05/04 03:34:52;;;;;;;7.17;3.83;;;;;;;12.25;50.54;100018.82;1774592;80;21058;-60
2022/05/04 03:37:22;;;;;;;9.18;3.67;;;;;;;12.25;50.55;100019.66;1774469;81;21086;-60
2022/05/04 03:39:53;;;;;;;6.05;3.50;;;;;;;12.28;50.57;100024.72;1774524;80;20999;-59
2022/05/04 03:42:23;;;;;;;6.97;3.58;;;;;;;12.32;50.45;100021.85;1774317;80;21010;-60
2022/05/04 03:44:52;;;;;;;6.75;3.58;;;;;;;12.36;50.39;100032.75;1774275;81;20970;-60
2022/05/04 03:47:21;;;;;;;6.83;3.35;;;;;;;12.38;50.29;100032.00;1774333;81;21034;-58
2022/05/04 03:49:51;;;;;;;8.30;3.40;;;;;;;12.44;50.21;100039.05;1776892;79;21042;-62
2022/05/04 03:52:21;;;;;;;7.37;3.17;;;;;;;12.45;50.13;100036.09;1737564;82;21058;-60
2022/05/04 03:54:50;;;;;;;8.80;3.30;;;;;;;12.50;49.97;100040.92;1805997;79;21510;-61
2022/05/04 03:57:20;;;;;;;9.48;3.42;;;;;;;12.53;49.93;100045.98;1790450;79;21456;-62
2022/05/04 03:59:49;;;;;;;8.03;3.52;;;;;;;12.56;49.86;100044.17;1774264;80;21491;-60
2022/05/04 04:02:19;;;;;;;7.85;3.70;;;;;;;12.60;49.90;100047.64;1774319;81;21083;-59
2022/05/04 04:04:48;;;;;;;10.08;3.80;;;;;;;12.65;49.69;100045.60;1774330;81;21024;-58
2022/05/04 04:07:18;;;;;;;9.88;3.80;;;;;;;12.72;49.58;100045.56;1774316;80;21018;-59
2022/05/04 04:09:47;;;;;;;7.45;3.65;;;;;;;12.75;49.61;100045.97;1774569;81;21060;-59
2022/05/04 04:12:18;;;;;;;8.25;3.98;;;;;;;12.78;49.50;100056.52;1774150;80;21454;-59
2022/05/04 04:14:47;;;;;;;14.30;4.42;;;;;;;12.80;49.44;100048.89;1774735;81;21050;-60
2022/05/04 04:17:16;;;;;;;11.03;4.15;;;;;;;12.84;49.35;100051.52;1774713;80;21050;-58
2022/05/04 04:21:50;;;;;;;9.90;3.90;;;;;;;12.86;49.51;100060.38;1774399;81;21046;-59
2022/05/04 04:22:18;;;;;;;10.00;4.42;;;;;;;12.85;49.41;100057.33;1771531;81;21067;-60
2022/05/04 04:24:47;;;;;;;15.23;4.40;;;;;;;12.87;49.54;100060.70;1774351;80;21003;-60
2022/05/04 04:27:16;;;;;;;10.03;4.50;;;;;;;12.88;49.56;100058.25;1774279;81;21038;-57
2022/05/04 04:29:45;;;;;;;10.68;4.42;;;;;;;12.89;49.30;100058.56;1774624;80;20998;-60
2022/05/04 04:32:15;;;;;;;9.13;4.05;;;;;;;12.84;49.39;100069.39;1774464;80;21454;-61
2022/05/04 04:34:45;;;;;;;11.35;4.03;;;;;;;12.83;49.46;100069.61;1774549;80;21003;-59
2022/05/04 04:37:14;;;;;;;7.97;4.12;;;;;;;12.86;49.44;100073.29;1801729;79;21012;-61
2022/05/04 04:39:44;;;;;;;9.45;4.03;;;;;;;12.89;49.41;100070.09;1737724;82;20975;-62
2022/05/04 04:42:13;;;;;;;14.30;4.15;;;;;;;12.90;49.46;100073.16;1806161;79;21023;-60
2022/05/04 04:44:42;;;;;;;11.35;4.55;;;;;;;12.89;49.56;100075.59;1737546;82;21137;-60
2022/05/04 04:47:12;;;;;;;13.45;4.53;;;;;;;12.88;49.51;100078.88;1806055;79;21011;-61
2022/05/04 04:49:41;;;;;;;9.80;4.12;;;;;;;12.90;49.64;100081.41;1737721;82;21074;-60
2022/05/04 04:52:10;;;;;;;11.12;4.00;;;;;;;12.93;49.62;100077.69;1811150;79;21450;-60
2022/05/04 04:54:39;;;;;;;12.58;4.67;;;;;;;12.99;49.43;100075.42;1806313;79;21004;-60
2022/05/04 04:57:09;;;;;;;13.45;4.22;;;;;;;13.06;49.29;100077.32;1744716;82;21155;-62
2022/05/04 04:59:38;;;;;;;8.70;4.40;;;;;;;13.12;49.26;100081.94;1822425;79;21046;-59
2022/05/04 05:02:07;;;;;;;14.45;5.15;;;;;;;13.17;49.14;100093.14;1822082;79;21054;-60
2022/05/04 05:04:36;;;;;;;13.05;4.78;;;;;;;13.25;48.98;100087.38;1822404;79;21395;-61
2022/05/04 05:07:06;;;;;;;14.20;4.65;;;;;;;13.33;48.83;100088.48;1811305;79;21008;-61
2022/05/04 05:09:35;;;;;;;9.25;4.78;;;;;;;13.38;48.64;100090.55;1805991;79;21067;-60
2022/05/04 05:12:07;;;;;;;14.23;5.25;;;;;;;13.43;48.74;100096.23;1806293;79;21075;-60
2022/05/04 05:17:28;;;;;;;11.63;4.50;;;;;;;13.55;48.33;100098.03;1805987;79;21004;-59
2022/05/04 05:19:58;;;;;;;9.83;4.62;;;;;;;13.61;48.12;100105.39;1806023;79;21447;-61
2022/05/04 05:22:27;;;;;;;15.48;5.00;;;;;;;13.72;48.08;100104.38;1805732;79;21464;-61
2022/05/04 05:24:56;;;;;;;11.68;4.60;;;;;;;13.87;47.85;100097.45;1805863;79;21067;-63
2022/05/04 05:27:24;;;;;;;13.50;4.62;;;;;;;13.98;47.23;100101.37;1764540;79;21051;-64
2022/05/04 05:29:54;;;;;;;9.68;4.50;;;;;;;14.04;47.18;100110.11;1758496;81;21074;-59
2022/05/04 05:32:25;;;;;;;9.20;4.12;;;;;;;14.05;47.04;100106.81;1758550;80;21055;-60
2022/05/04 05:34:54;;;;;;;9.25;3.65;;;;;;;14.04;47.25;100104.59;1758225;81;21079;-60
2022/05/04 05:37:23;;;;;;;9.25;3.33;;;;;;;14.06;47.23;100109.88;1758081;81;21047;-61
2022/05/04 05:39:53;;;;;;;6.28;2.70;;;;;;;14.06;47.11;100106.59;1758196;81;21008;-61
2022/05/04 05:42:23;;;;;;;5.08;2.62;;;;;;;14.08;47.07;100110.49;1758157;81;20976;-60
2022/05/04 05:44:52;;;;;;;7.78;2.40;;;;;;;14.09;46.83;100106.67;1758236;81;21098;-62
2022/05/04 05:47:21;;;;;;;6.12;2.25;;;;;;;14.07;46.91;100113.78;1758528;81;21040;-61
2022/05/04 05:49:51;;;;;;;6.65;2.20;;;;;;;14.07;46.92;100117.92;1758454;81;21016;-60
2022/05/04 05:52:21;;;;;;;4.22;2.62;;;;;;;14.09;46.89;100122.66;1764725;81;21042;-62
2022/05/04 05:54:51;;;;;;;5.72;2.37;;;;;;;14.10;46.90;100122.97;1751592;82;21011;-60
2022/05/04 05:57:22;;;;;;;8.90;2.30;;;;;;;14.15;46.56;100130.02;1743239;81;21322;-61
2022/05/04 05:59:53;;;;;;;6.45;2.20;;;;;;;14.17;46.18;100138.05;1758647;81;21055;-61
2022/05/04 06:02:28;;;;;;;5.03;2.30;;;;;;;14.13;46.20;100130.78;1758570;80;21035;-61
2022/05/04 06:04:57;;;;;;;3.62;2.12;;;;;;;14.14;46.30;100130.25;1758510;81;21043;-62
2022/05/04 06:07:26;;;;;;;11.55;6.80;;;;;;;14.19;45.88;100133.16;1753012;81;21466;-62
2022/05/04 06:09:57;;;;;;;5.25;2.35;;;;;;;14.18;46.07;100136.45;1751591;80;21500;-60
2022/05/04 06:12:27;;;;;;;4.53;2.37;;;;;;;14.16;45.90;100142.72;1751628;82;21030;-62
2022/05/04 06:14:56;;;;;;;6.60;2.00;;;;;;;14.12;46.04;100144.25;1751629;80;21046;-63
2022/05/04 06:17:25;;;;;;;6.33;2.00;;;;;;;14.10;46.06;100132.61;1751611;82;21101;-61
2022/05/04 06:19:56;;;;;;;3.90;1.70;;;;;;;14.10;45.92;100135.37;1751555;82;21074;-60
2022/05/04 06:22:26;;;;;;;6.15;1.98;;;;;;;14.16;45.93;100136.38;1751592;80;21025;-65
2022/05/04 06:24:55;;;;;;;7.40;2.15;;;;;;;14.34;45.38;100133.66;1751719;81;21090;-62
2022/05/04 06:27:28;;;;;;;4.12;2.05;;;;;;;14.71;44.82;100137.29;1779998;80;21025;-59
2022/05/04 06:35:33;;;;;;;3.15;2.05;;;;;;;16.23;41.81;100144.67;1790279;80;21087;-61
2022/05/04 06:38:04;;;;;;;5.58;2.00;;;;;;;16.70;41.07;100146.89;1790292;80;21079;-61
2022/05/04 06:40:35;;;;;;;8.18;1.90;;;;;;;17.09;39.71;100129.17;1790284;80;21075;-60
2022/05/04 06:43:05;;;;;;;3.65;1.77;;;;;;;17.54;38.56;100135.27;1790320;80;21464;-60
2022/05/04 06:45:34;;;;;;;6.47;2.02;;;;;;;17.88;37.93;100143.96;1790443;80;20976;-60
2022/05/04 06:48:05;;;;;;;4.55;2.33;;;;;;;18.13;37.45;100143.52;1790310;80;21036;-63
2022/05/04 06:50:34;;;;;;;3.35;2.15;;;;;;;18.30;37.28;100142.14;1790193;79;21004;-62
2022/05/04 06:53:03;;;;;;;4.72;2.20;;;;;;;18.50;36.97;100147.15;1790249;80;21008;-61
2022/05/04 06:55:33;;;;;;;6.75;2.08;;;;;;;18.68;37.09;100139.94;1794503;79;21095;-63
2022/05/04 06:58:03;;;;;;;8.45;2.17;;;;;;;18.96;36.18;100147.27;1751320;81;21076;-60
2022/05/04 07:00:32;;;;;;;7.92;2.55;;;;;;;19.21;36.10;100143.39;1822200;79;21015;-62
2022/05/04 07:03:03;;;;;;;4.90;2.40;;;;;;;19.47;35.60;100150.61;1822148;79;21143;-62
2022/05/04 07:05:33;;;;;;;5.03;2.22;;;;;;;19.69;35.37;100147.83;1821498;79;21555;-60
2022/05/04 07:08:05;;;;;;;7.22;2.35;;;;;;;19.95;34.23;100146.94;1774526;81;21014;-59
2022/05/04 07:10:34;;;;;;;4.37;2.10;;;;;;;20.11;34.08;100152.07;1774374;81;21466;-64
2022/05/04 07:13:03;;;;;;;4.70;2.12;;;;;;;20.27;34.29;100156.67;1774128;80;21010;-61
2022/05/04 07:15:34;;;;;;;5.17;2.30;;;;;;;20.40;33.80;100164.59;1774166;80;21062;-63
2022/05/04 07:18:04;;;;;;;4.92;2.30;;;;;;;20.65;33.63;100159.72;1774632;81;21038;-61
2022/05/04 07:20:33;;;;;;;3.95;1.85;;;;;;;20.74;33.83;100162.27;1774240;81;21166;-62
2022/05/04 07:23:03;;;;;;;3.90;2.00;;;;;;;20.79;33.38;100171.21;1774273;81;21026;-61
2022/05/04 07:25:32;;;;;;;9.20;2.85;;;;;;;20.87;33.51;100164.60;1774251;81;21073;-60
2022/05/04 07:28:02;;;;;;;4.37;2.02;;;;;;;20.94;33.46;100171.88;1774099;80;21111;-60
2022/05/04 07:30:31;;;;;;;10.08;2.58;;;;;;;21.02;33.56;100168.56;1774403;81;21034;-59
2022/05/04 07:33:00;;;;;;;4.22;1.90;;;;;;;21.14;33.27;100174.19;1774274;81;21002;-64
2022/05/04 07:35:29;;;;;;;6.17;1.87;;;;;;;21.39;32.33;100174.02;1774438;80;21517;-59
2022/05/04 07:37:59;;;;;;;5.37;1.92;;;;;;;21.47;32.07;100176.30;1774271;81;21014;-61
2022/05/04 07:43:17;;;;;;;5.78;2.00;;;;;;;21.57;31.92;100172.69;1774179;80;21098;-60
2022/05/04 07:45:46;;;;;;;3.15;1.92;;;;;;;21.57;31.92;100187.47;1774508;81;21096;-61
2022/05/04 07:48:15;;;;;;;4.08;2.00;;;;;;;21.70;31.87;100177.17;1774479;81;21507;-61
2022/05/04 07:50:45;;;;;;;5.75;2.00;;;;;;;21.73;31.88;100179.41;1774126;79;21012;-60
2022/05/04 07:53:14;;;;;;;5.80;1.92;;;;;;;21.72;31.76;100181.92;1773706;79;21045;-61
2022/05/04 07:55:43;;;;;;;6.70;2.50;;;;;;;21.69;32.07;100174.66;1785655;79;21040;-62
2022/05/04 07:58:13;;;;;;;4.62;1.95;;;;;;;21.87;31.78;100186.67;1819871;79;21043;-62
2022/05/04 08:06:18;;;;;;;;;;;;;;;22.36;31.34;100187.02;1819400;79;20972;-60
2022/05/04 08:08:48;;;;;;;4.22;2.08;;;;;;;22.51;30.56;100193.69;1805859;79;20205;-61
2022/05/04 08:11:19;;;;;;;6.55;2.42;;;;;;;22.65;30.52;100191.43;1806106;79;21048;-61
2022/05/04 08:13:48;;;;;;;6.40;2.27;;;;;;;22.65;30.79;100192.83;1805803;79;21048;-62
2022/05/04 08:16:18;;;;;;;8.70;1.80;;;;;;;22.52;30.87;100201.79;1806011;79;21047;-60
2022/05/04 08:18:48;;;;;;;4.20;1.60;;;;;;;22.42;31.22;100201.80;1805935;79;21036;-61
2022/05/04 08:21:17;;;;;;;3.50;1.75;;;;;;;22.14;30.99;100208.80;1805670;79;21016;-61
2022/05/04 08:23:49;;;;;;;6.55;1.82;;;;;;;21.68;31.33;100217.05;1805882;79;21043;-62
2022/05/04 08:26:22;;;;;;;3.72;1.70;;;;;;;21.01;31.87;100217.87;1805940;79;21059;-61
2022/05/04 08:28:52;;;;;;;8.35;1.40;;;;;;;20.44;32.56;100214.43;1814515;79;21036;-60
2022/05/04 08:31:23;;;;;;;6.08;1.42;;;;;;;19.91;31.90;100217.55;1814527;79;21039;-62
2022/05/04 08:33:52;;;;;;;6.37;1.70;;;;;;;19.37;32.27;100219.96;1814512;79;21035;-62
2022/05/04 08:36:21;;;;;;;6.70;1.72;;;;;;;18.94;32.45;100223.04;1814329;79;21027;-62
2022/05/04 08:38:52;;;;;;;6.40;1.45;;;;;;;18.63;32.18;100232.29;1814303;79;21450;-60
2022/05/04 08:41:22;;;;;;;4.10;1.50;;;;;;;18.36;32.83;100232.67;1814251;79;21043;-61
2022/05/04 08:43:52;;;;;;;5.78;1.40;;;;;;;18.12;32.99;100229.19;1814554;79;21492;-61
2022/05/04 08:46:22;;;;;;;3.50;1.25;;;;;;;18.00;33.43;100245.06;1814486;79;21055;-62
2022/05/04 08:48:51;;;;;;;6.03;1.92;;;;;;;17.87;32.48;100240.68;1814754;79;21047;-61
2022/05/04 08:51:19;;;;;;;4.70;1.20;;;;;;;17.79;32.30;100251.33;1788445;79;21040;-60
2022/05/04 08:53:49;;;;;;;7.58;1.77;;;;;;;17.71;31.33;100247.88;1782220;79;21017;-63
2022/05/04 08:56:18;;;;;;;2.98;1.20;;;;;;;17.67;31.86;100247.23;1799316;79;21456;-61
2022/05/04 08:58:48;;;;;;;4.80;1.47;;;;;;;17.69;31.79;100258.36;1782862;80;21017;-63
2022/05/04 09:01:19;;;;;;;4.10;1.45;;;;;;;17.76;31.88;100240.20;1782440;80;21028;-64
2022/05/04 09:03:48;;;;;;;3.33;1.10;;;;;;;17.80;32.38;100251.08;1745179;82;21044;-62
2022/05/04 09:06:28;;;;;;;3.37;1.22;;;;;;;17.85;32.51;100234.55;1755553;81;21034;-61
2022/05/04 09:09:11;;;;;;;2.52;1.35;;;;;;;17.91;32.61;100243.25;1775847;81;21020;-61
2022/05/04 09:11:44;;;;;;;2.83;1.07;;;;;;;18.00;32.37;100246.45;1776045;81;21476;-62
2022/05/04 09:14:20;;;;;;;6.58;1.72;;;;;;;18.16;32.20;100232.30;1775617;81;21035;-62
2022/05/04 09:16:48;;;;;;;12.93;2.05;;;;;;;18.32;31.99;100243.98;1775769;81;21059;-62
2022/05/04 09:19:18;;;;;;;4.37;1.42;;;;;;;18.42;32.25;100248.30;1775972;81;21000;-60
2022/05/04 09:21:47;;;;;;;2.25;1.12;;;;;;;18.55;32.30;100245.18;1776339;81;21051;-62
2022/05/04 09:24:28;;;;;;;4.87;1.30;;;;;;;18.64;32.00;100249.23;1775848;81;20984;-62
2022/05/04 09:26:58;;;;;;;3.02;1.15;;;;;;;18.69;32.05;100252.09;1772559;81;21145;-60
2022/05/04 09:29:34;;;;;;;2.70;1.15;;;;;;;18.77;32.41;100251.36;1743043;82;21067;-61
2022/05/04 09:32:14;;;;;;;;;;;;;;;18.70;32.57;100251.54;1745688;82;21011;-61
2022/05/04 09:34:46;;;;;;;1.52;1.20;;;;;;;18.55;33.64;100245.73;1741869;82;20177;-60
2022/05/04 09:45:47;;;;;;;;;;;;;;;18.25;33.15;100240.53;1745793;81;21134;-61
2022/05/04 09:48:21;;;;;;;2.55;1.32;;;;;;;18.27;33.27;100243.34;1742627;82;20242;-62
2022/05/04 09:50:52;;;;;;;4.47;1.37;;;;;;;18.29;32.14;100237.55;1707803;82;21063;-62
2022/05/04 09:53:27;;;;;;;4.50;1.45;;;;;;;18.28;32.51;100235.32;1691010;82;21067;-60
2022/05/04 09:55:56;;;;;;;13.72;1.75;;;;;;;18.35;32.41;100232.38;1758901;80;21411;-62
2022/05/04 09:58:29;;;;;;;2.80;1.40;;;;;;;18.45;32.42;100237.24;1779911;80;21468;-61
2022/05/04 10:00:59;;;;;;;1.70;0.90;;;;;;;18.38;32.58;100236.03;1779775;80;21510;-63
2022/05/04 10:03:29;;;;;;;4.42;1.25;;;;;;;18.33;32.43;100242.34;1779567;79;20999;-60
2022/05/04 10:06:00;;;;;;;5.17;1.27;;;;;;;18.27;32.32;100241.12;1774159;80;21060;-60
2022/05/04 10:08:30;;;;;;;3.83;1.30;;;;;;;18.22;32.04;100250.20;1751818;82;21053;-61
2022/05/04 10:10:59;;;;;;;3.42;1.10;;;;;;;18.19;32.05;100249.83;1751670;80;21041;-61
2022/05/04 10:13:31;;;;;;;3.77;1.30;;;;;;;18.07;32.02;100252.67;1751658;81;21021;-61
2022/05/04 10:16:00;;;;;;;4.42;2.02;;;;;;;17.98;32.45;100245.31;1751624;82;21049;-61
2022/05/04 10:18:31;;;;;;;4.25;1.30;;;;;;;17.93;32.69;100241.61;1751674;81;21433;-60
2022/05/04 10:21:10;;;;;;;3.22;1.05;;;;;;;17.92;32.81;100239.38;1751449;81;21017;-63
2022/05/04 10:23:48;;;;;;;3.02;1.10;;;;;;;17.93;32.58;100249.38;1734586;82;21018;-62
2022/05/04 10:26:17;;;;;;;2.87;0.90;;;;;;;17.90;32.13;100244.88;1751548;81;21517;-63
2022/05/04 10:30:30;;;;;;;4.90;1.20;;;;;;;17.84;31.79;100251.42;1779876;80;21449;-62
2022/05/04 10:31:17;;;;;;;1.50;1.00;;;;;;;17.72;31.98;100242.62;1771082;80;21456;-62
2022/05/04 10:33:48;;;;;;;3.40;1.10;;;;;;;17.71;31.96;100249.80;1800806;80;20984;-61
2022/05/04 10:36:23;;;;;;;2.87;1.00;;;;;;;17.70;31.91;100246.19;1796998;80;21020;-64
2022/05/04 10:38:52;;;;;;;7.45;1.17;;;;;;;17.68;31.45;100242.83;1772442;80;21040;-61
2022/05/04 10:41:37;;;;;;;3.05;1.07;;;;;;;17.68;31.42;100247.53;1800980;80;21008;-62
2022/05/04 10:44:10;;;;;;;1.50;1.00;;;;;;;17.70;31.33;100250.89;1801032;80;21008;-62
2022/05/04 10:46:41;;;;;;;2.80;1.00;;;;;;;17.72;31.52;100239.02;1800690;80;21047;-61
2022/05/04 10:49:15;;;;;;;2.65;0.80;;;;;;;17.80;31.29;100248.86;1800808;80;21483;-63
2022/05/04 10:51:42;;;;;;;4.90;1.27;;;;;;;17.84;31.07;100234.25;1800390;80;21079;-61
2022/05/04 10:54:18;;;;;;;5.28;1.40;;;;;;;17.87;30.89;100235.69;1800924;80;21079;-63
2022/05/04 10:56:51;;;;;;;4.45;1.05;;;;;;;17.86;31.37;100229.84;1816356;78;21544;-62
2022/05/04 10:59:35;;;;;;;3.20;1.32;;;;;;;17.89;30.58;100234.34;1830501;78;21003;-62
2022/05/04 11:02:11;;;;;;;1.57;0.88;;;;;;;17.87;30.54;100230.14;1829773;78;21054;-63
2022/05/04 11:04:40;;;;;;;2.83;0.90;;;;;;;17.85;30.21;100229.00;1830438;78;21022;-60
2022/05/04 11:07:10;;;;;;;3.40;1.20;;;;;;;17.77;30.14;100237.72;1799031;78;21050;-63
2022/05/04 11:09:46;;;;;;;2.70;0.98;;;;;;;17.72;30.13;100233.47;1754894;80;21077;-61
2022/05/04 11:12:17;;;;;;;2.00;1.00;;;;;;;17.72;30.38;100243.17;1784718;79;20975;-63
2022/05/04 11:14:48;;;;;;;3.17;1.00;;;;;;;17.71;30.33;100241.48;1755040;80;21037;-63
2022/05/04 11:17:17;;;;;;;2.90;1.20;;;;;;;17.68;30.36;100228.13;1784551;80;21462;-60
2022/05/04 11:19:48;;;;;;;3.42;0.88;;;;;;;17.65;30.30;100238.30;1784512;80;20986;-61
2022/05/04 11:22:18;;;;;;;2.00;1.07;;;;;;;17.64;30.03;100225.53;1784661;80;21018;-60
2022/05/04 11:24:49;;;;;;;1.95;1.10;;;;;;;17.66;30.06;100241.36;1779819;80;21014;-60
2022/05/04 11:27:19;;;;;;;2.55;1.30;;;;;;;17.67;30.11;100233.37;1784514;79;21069;-61
2022/05/04 11:29:48;;;;;;;8.23;1.20;;;;;;;17.69;30.36;100235.36;1784734;80;21026;-60
2022/05/04 11:32:20;;;;;;;2.60;1.12;;;;;;;17.72;29.95;100232.92;1775112;80;21019;-62
2022/05/04 11:34:50;;;;;;;1.77;1.00;;;;;;;17.73;29.96;100233.22;1774071;81;21066;-61
2022/05/04 11:37:20;;;;;;;3.70;1.20;;;;;;;17.70;29.92;100231.50;1774071;81;21022;-61
2022/05/04 11:39:50;;;;;;;6.10;1.77;;;;;;;17.68;30.12;100230.36;1752786;81;21050;-61
2022/05/04 11:42:21;;;;;;;2.33;1.17;;;;;;;17.65;30.06;100221.67;1774169;80;21045;-63
2022/05/04 11:44:52;;;;;;;2.85;1.30;;;;;;;17.62;30.39;100227.16;1774256;81;21003;-62
2022/05/04 11:47:21;;;;;;;3.22;1.40;;;;;;;17.64;30.29;100229.14;1728726;81;21050;-61
2022/05/04 11:49:54;;;;;;;6.75;1.20;;;;;;;17.67;30.03;100219.52;1729442;81;21030;-61
2022/05/04 11:52:24;;;;;;;3.62;0.98;;;;;;;17.69;30.27;100220.11;1774133;81;21422;-61
2022/05/04 11:54:54;;;;;;;2.80;1.30;;;;;;;17.70;29.83;100225.41;1752766;80;21038;-59
2022/05/04 11:57:23;;;;;;;4.62;1.62;;;;;;;17.69;29.73;100222.88;1803437;79;21463;-60
2022/05/04 11:59:52;;;;;;;5.08;1.65;;;;;;;17.64;29.62;100216.67;1822357;79;21066;-62
2022/05/04 12:02:22;;;;;;;2.72;1.40;;;;;;;17.57;29.88;100222.91;1822141;79;21487;-60
2022/05/04 12:04:52;;;;;;;9.15;1.65;;;;;;;17.58;29.74;100229.30;1822093;79;21274;-60
2022/05/04 12:07:23;;;;;;;2.67;1.32;;;;;;;17.57;29.84;100227.61;1785001;79;20966;-60
2022/05/04 12:09:52;;;;;;;6.35;1.30;;;;;;;17.63;29.74;100223.84;1774126;80;21014;-61